Gustavo González

Chefscout - Boca Juniors
5 Dez 2027
Sonntag
Verarbeitung

Persönlichkeit

Anpassungsfähigkeit (7) Ehrgeiz (4) Kontroverse (2) Loyalität (18) Druck (15) Professionalität (5) Fairness (2) Temperament (8)

Profil

Trainerstil Demokratisch
Lizenz Nationale A
Entschlossenheit 9
Menschenführung 16
Motivation 14
Disziplin 9
Arbeitszufriedenheit
100%
Ermüdung
0%
Rolle Chefscout
Gehalt 69.2K p/W
Vertrag 14.03.2029

Leistung

Verhalten Gut
Trainingseffektivität
43%
Spielerentwicklung
55%
Verletzungsprävention
30%
Taktische Umsetzung
60%

Letzte Ereignisse

Nahm an einer Scouting-Besprechung teil jetzt
Empfahl ein Transferziel jetzt
Empfahl ein Transferziel jetzt
Empfahl ein Transferziel jetzt
Empfahl ein Transferziel jetzt
Empfahl ein Transferziel jetzt
Spieler begutachtet jetzt
Legte dem Vorstand ein Dossier vor jetzt

Aktuell beobachtet

189
Spieler Verein Status Fähigkeit Vertrauen Beobachtet Zuletzt beobachtet Letzte Stimme
Marcel Ruiz RC Lens Verhandlung 140 / 141 66% 1 01.12.2027 Befürworten
Israel Reyes Boca Juniors Verhandlung 137 / 137 68% 1 01.12.2027 -
Ignacio Russo Tigre Bericht bereit 119 / 126 76% 1 01.12.2027 -
Dwight McNeil Crystal Palace Aktiv 146 / 150 40% 1 30.11.2027 -
George Hirst Stoke City Aktiv 133 / 131 40% 1 30.11.2027 -
Dango Ouattara Brentford Aktiv 147 / 159 40% 1 30.11.2027 -
Caoimhin Kelleher Brentford Aktiv 164 / 153 40% 21 28.11.2027 -
Elia Caprile Cagliari Aktiv 156 / 145 40% 4 28.11.2027 -
Jamie Cumming Bradford City Aktiv 139 / 129 40% 8 28.11.2027 -
Mads Hermansen West Ham United Aktiv 140 / 142 40% 10 27.11.2027 -
Diego Conde Villarreal Aktiv 146 / 141 40% 25 27.11.2027 -
Arijanet Murić Sassuolo Aktiv 137 / 139 40% 10 27.11.2027 -
Michael Cooper Sheffield United Aktiv 128 / 129 40% 4 25.11.2027 -
Đorđe Petrović Arsenal Aktiv 158 / 155 40% 17 24.11.2027 -
Carl Rushworth Sunderland Aktiv 152 / 156 40% 7 24.11.2027 -
Gianluigi Donnarumma Inter Aktiv 173 / 164 40% 10 23.11.2027 -
Mark Travers Everton Aktiv 152 / 149 40% 4 19.11.2027 -
James Trafford Leeds United Aktiv 152 / 160 40% 5 19.11.2027 -
Antonín Kinský Wolverhampton Aktiv 145 / 153 40% 6 16.11.2027 -
Raúl Rangel Manchester United Aktiv 148 / 136 40% 5 15.11.2027 -
Justin Bijlow Genoa Aktiv 144 / 153 40% 18 14.11.2027 -
Anatolii Trubin Aston Villa Aktiv 166 / 159 40% 2 14.11.2027 -
Zion Suzuki Aston Villa Aktiv 140 / 152 40% 8 11.11.2027 -
Franco Israel Torino Aktiv 150 / 136 40% 10 11.11.2027 -
Lukáš Horníček Liverpool Aktiv 156 / 148 40% 4 11.11.2027 -
Matt Freese New York City Aktiv 133 / 142 40% 3 08.11.2027 -
Jakub Stolarczyk Notts County Aktiv 146 / 152 40% 2 07.11.2027 -
Radek Vítek Middlesbrough Aktiv 154 / 139 40% 7 05.11.2027 -
Christos Mandas Lazio Aktiv 147 / 152 40% 5 04.11.2027 -
Senne Lammens AS Roma Aktiv 167 / 164 40% 7 04.11.2027 -
Stanislav Agkatsev CSKA Moscow Aktiv 140 / 143 40% 23 01.11.2027 -
Vladislav Torop Zenit Aktiv 139 / 143 40% 13 29.10.2027 -
Aaron Ramsdale Southampton Aktiv 148 / 151 40% 3 22.10.2027 -
Anthony Patterson Wrexham Aktiv 145 / 132 40% 1 20.10.2027 -
Robert Sánchez Chelsea Aktiv 153 / 165 40% 1 20.10.2027 -
Victor Aznar Cádiz Aktiv 127 / 132 40% 1 19.10.2027 -
Álvaro Fernández Villarreal Aktiv 146 / 149 40% 15 14.10.2027 -
Noel Törnqvist Como Aktiv 143 / 134 40% 1 05.10.2027 -
Diogo Costa Inter Aktiv 175 / 172 40% 1 30.09.2027 -
Josh Keeley Luton Town Aktiv 124 / 134 40% 2 28.09.2027 -
Sam Tickle Fulham Aktiv 146 / 145 40% 1 18.09.2027 -
Mike Penders Chelsea Aktiv 132 / 148 40% 26 11.09.2027 -
Filip Stanković AS Roma Aktiv 147 / 142 40% 1 11.09.2027 -
Edoardo Corvi Torino Aktiv 141 / 133 40% 1 10.09.2027 -
Tommaso Martinelli Fiorentina Aktiv 139 / 134 40% 1 08.09.2027 -
Federico Ravaglia Torino Aktiv 147 / 134 40% 1 08.09.2027 -
Devis Vásquez AS Roma Aktiv 127 / 129 40% 1 07.09.2027 -
Kauã Santos Werder Bremen Aktiv 140 / 142 40% 3 05.09.2027 -
André Gomes Casa Pia Aktiv 127 / 135 40% 7 31.08.2027 -
Hugo Souza Athletic Bilbao Aktiv 140 / 144 40% 2 29.08.2027 -
Nediljko Labrović FC Augsburg Aktiv 129 / 131 40% 1 27.08.2027 -
Oliver Dovin Coventry City Aktiv 129 / 141 40% 3 21.08.2027 -
Andrew Flamengo Aktiv 129 / 138 40% 3 08.08.2027 -
Illan Meslier Arsenal Aktiv 125 / 139 40% 2 04.08.2027 -
Unai Marrero Real Sociedad Aktiv 141 / 135 40% 3 03.08.2027 -
Juan Iglesias Sevilla Aktiv 138 / 145 40% 1 19.07.2027 -
Mohamed Simakan Al-Nassr Aktiv 141 / 141 40% 1 19.07.2027 -
Tijjani Reijnders Al-Qadisiyah Aktiv 162 / 152 40% 23 13.07.2027 -
Yacine Adli Al-Shabab Aktiv 140 / 131 40% 1 13.07.2027 -
Altay Bayındır Manchester United Aktiv 129 / 136 40% 1 08.07.2027 -
Daniel Peretz Bayern Munich Aktiv 142 / 135 40% 1 01.07.2027 -
Vítězslav Jaroš Liverpool Aktiv 144 / 147 40% 1 01.07.2027 -
Lennon Miller AC Milan Aktiv 125 / 146 40% 2 23.06.2027 -
Mandla Phiri SuperSport United Aktiv 154 / 154 40% 1 23.06.2027 -
Dinko Horkaš Al Wasl Aktiv 125 / 128 40% 2 22.06.2027 -
Adrian Šemper Al-Fateh Aktiv 126 / 136 40% 1 22.06.2027 -
Luiz Henrique Flamengo Aktiv 142 / 143 68% 1 01.06.2027 Befürworten
Mao Hosoya Anderlecht Verhandlung 134 / 135 67% 1 01.06.2027 Befürworten
Thiago Almada Liverpool Aktiv 145 / 146 69% 1 01.06.2027 Befürworten
Eduard Spertsyan Al-Ahli Aktiv 145 / 152 40% 1 31.05.2027 -
Santino Barbi Talleres Aktiv 118 / 124 40% 1 22.05.2027 -
Diego Mascardi SC Freiburg Aktiv 117 / 141 40% 1 10.05.2027 -
Samu Aghehowa Bayer Leverkusen Aktiv 139 / 148 40% 4 20.04.2027 -
Christian Kofane Bayer Leverkusen Aktiv 130 / 135 40% 1 12.04.2027 -
João Pedro Chelsea Aktiv 150 / 142 40% 2 03.03.2027 -
Benjamin Šeško Manchester United Aktiv 155 / 144 40% 2 03.03.2027 -
Evanilson Bournemouth Aktiv 157 / 144 40% 1 03.03.2027 -
Gabriel Martinelli Arsenal Aktiv 153 / 160 40% 1 26.02.2027 -
Bryan Mbeumo Manchester United Aktiv 168 / 156 40% 1 26.02.2027 -
Nicolas Jackson Aston Villa Aktiv 147 / 150 40% 1 26.02.2027 -
Cody Gakpo Liverpool Aktiv 157 / 164 40% 5 25.02.2027 -
Mateo Retegui Lazio Aktiv 164 / 149 40% 1 25.02.2027 -
Viktor Gyökeres Arsenal Aktiv 150 / 155 40% 2 24.02.2027 -
Giorgi Mamardashvili Manchester City Aktiv 160 / 169 40% 9 23.02.2027 -
Iliman N'Diaye Derby County Aktiv 151 / 156 40% 3 22.02.2027 -
Alex Meret Napoli Aktiv 147 / 152 40% 21 21.02.2027 -
Jean-Philippe Mateta Crystal Palace Aktiv 159 / 146 40% 2 19.02.2027 -
Morgan Rogers Chelsea Aktiv 157 / 168 40% 1 13.02.2027 -
Giacomo Raspadori Atalanta Aktiv 153 / 139 40% 1 13.02.2027 -
Marcus Thuram Inter Aktiv 180 / 162 40% 1 10.02.2027 -
Charles De Ketelaere Atalanta Aktiv 163 / 151 40% 1 10.02.2027 -
Vanja Milinković-Savić Napoli Aktiv 151 / 151 40% 14 03.02.2027 -
Dominic Solanke Tottenham Aktiv 157 / 152 40% 5 23.01.2027 -
Gianluca Scamacca Atalanta Aktiv 139 / 151 40% 4 06.01.2027 -
Julián Quiñones Al-Qadisiyah Aktiv 161 / 138 40% 2 19.12.2026 -
Josías Palais Independiente Aktiv 101 / 111 65% 1 14.12.2026 Befürworten
Matthieu Epolo Monaco Aktiv 109 / 134 40% 1 03.12.2026 -
Maduka Okoye Udinese Aktiv 129 / 131 40% 1 02.12.2026 -
Roberto Alvarado Leeds United Aktiv 139 / 139 66% 1 01.12.2026 Befürworten
Matt O'Riley Blackburn Rovers Aktiv 149 / 134 40% 1 30.11.2026 -
Oscar Al-Taawoun Aktiv 147 / 134 40% 1 30.11.2026 -
Leon Bailey Olympiacos Aktiv 144 / 146 40% 1 30.11.2026 -
Éderson Atalanta Aktiv 146 / 157 40% 1 28.11.2026 -
Exequiel Palacios Ipswich Town Aktiv 158 / 153 40% 7 27.11.2026 -
Dodo Fiorentina Aktiv 141 / 141 40% 2 27.11.2026 -
Billy Gilmour Napoli Aktiv 157 / 152 40% 1 25.11.2026 -
Kenneth Taylor Lazio Aktiv 154 / 154 40% 3 24.11.2026 -
Weston McKennie Juventus Aktiv 165 / 148 40% 2 24.11.2026 -
Teun Koopmeiners Juventus Aktiv 141 / 150 40% 2 21.11.2026 -
Mika Godts Paris Saint-Germain Aktiv 143 / 139 40% 1 21.11.2026 -
Edon Zhegrova Juventus Aktiv 148 / 147 40% 2 20.11.2026 -
Manuel Locatelli Juventus Aktiv 143 / 157 40% 2 18.11.2026 -
Franck Kessié Atalanta Aktiv 155 / 153 40% 2 18.11.2026 -
Jack Hinshelwood Brighton Aktiv 133 / 148 40% 5 17.11.2026 -
Carlos Augusto Inter Aktiv 138 / 144 40% 2 16.11.2026 -
Alex Scott Bournemouth Aktiv 158 / 154 40% 1 16.11.2026 -
Randal Kolo Muani Juventus Aktiv 135 / 151 40% 2 15.11.2026 -
Wesley AS Roma Aktiv 146 / 149 40% 4 14.11.2026 -
Nahuel Molina AS Roma Aktiv 138 / 148 40% 1 14.11.2026 -
António Silva Bournemouth Aktiv 146 / 136 40% 1 13.11.2026 -
Mathías Olivera Napoli Aktiv 144 / 137 40% 1 13.11.2026 -
Kirill Glebov CSKA Moscow Aktiv 133 / 132 40% 1 10.11.2026 -
Caleb Yirenkyi Coventry City Aktiv 125 / 136 40% 1 09.11.2026 -
Sepp van den Berg Brentford Aktiv 155 / 151 40% 1 08.11.2026 -
Christ Inao Oulaï Fiorentina Aktiv 125 / 133 40% 1 04.11.2026 -
Michael Kayode Brentford Aktiv 137 / 153 40% 3 03.11.2026 -
Jesús Rodríguez Como Aktiv 136 / 142 40% 1 01.11.2026 -
Jayden Addai Como Aktiv 137 / 137 40% 1 01.11.2026 -
Barış Alper Yılmaz Galatasaray Aktiv 159 / 147 40% 1 26.10.2026 -
Lewis Hall Newcastle United Aktiv 140 / 140 40% 1 26.10.2026 -
Adam Wharton Crystal Palace Aktiv 141 / 146 40% 6 24.10.2026 -
Kaoru Mitoma Brighton Aktiv 151 / 156 40% 2 24.10.2026 -
Ian Maatsen Aston Villa Aktiv 145 / 148 40% 3 22.10.2026 -
Nathan Collins Brentford Aktiv 155 / 135 40% 1 22.10.2026 -
Ousmane Diomande Nottingham Forest Aktiv 144 / 147 40% 1 22.10.2026 -
Diogo Dalot Manchester United Aktiv 134 / 142 40% 1 22.10.2026 -
Josh Acheampong Chelsea Aktiv 123 / 132 40% 1 19.10.2026 -
Christos Mouzakitis Hull City Aktiv 117 / 140 40% 1 17.10.2026 -
Rúben Dias Manchester City Aktiv 164 / 160 40% 3 16.10.2026 -
Malick Fofana Sunderland Aktiv 138 / 144 40% 1 16.10.2026 -
El Hadji Malick Diouf Brentford Aktiv 128 / 139 40% 3 12.10.2026 -
Ibrahim Sangaré Nottingham Forest Aktiv 135 / 139 40% 1 12.10.2026 -
James Garner Everton Aktiv 137 / 150 40% 1 11.10.2026 -
Antoni Milambo Brentford Aktiv 127 / 144 40% 1 11.10.2026 -
Lewis Cook Bournemouth Aktiv 137 / 154 40% 2 10.10.2026 -
Wilson Odobert Brighton Aktiv 128 / 134 40% 1 10.10.2026 -
Jaka Bijol Leeds United Aktiv 150 / 135 40% 1 10.10.2026 -
Ferdi Kadıoğlu Stoke City Aktiv 137 / 143 40% 1 10.10.2026 -
Ethan Ampadu Leeds United Aktiv 132 / 135 40% 1 09.10.2026 -
Matty Cash Aston Villa Aktiv 139 / 161 40% 1 09.10.2026 -
Josh King Charlton Athletic Aktiv 136 / 137 40% 1 08.10.2026 -
Matías Fernández-Pardo Newcastle United Aktiv 141 / 133 40% 1 08.10.2026 -
Ollie Scarles West Ham United Aktiv 127 / 135 40% 2 05.10.2026 -
Mateus Mané Liverpool Aktiv 119 / 127 40% 1 04.10.2026 -
Sindre Walle Egeli Ipswich Town Aktiv 124 / 140 40% 1 04.10.2026 -
Dean Henderson Crystal Palace Aktiv 134 / 144 40% 1 03.10.2026 -
Mathys Tel Tottenham Aktiv 127 / 149 40% 1 03.10.2026 -
Ilyas Ansah Hull City Aktiv 133 / 132 40% 1 02.10.2026 -
Marcos Senesi Tottenham Aktiv 144 / 139 40% 2 30.09.2026 -
Lucas Bergvall Tottenham Aktiv 133 / 142 40% 1 30.09.2026 -
Quinten Timber Crystal Palace Aktiv 149 / 140 40% 1 30.09.2026 -
Joe Gomez Liverpool Aktiv 161 / 142 40% 1 30.09.2026 -
Juan Pereyra Veracruz Aktiv 159 / 169 40% 5 26.09.2026 -
Robert FC Copenhagen Aktiv 116 / 133 40% 1 22.09.2026 -
Oleksandr Zinchenko Shakhtar Aktiv 153 / 137 40% 7 21.09.2026 -
Kauã Elias Club Brugge Aktiv 120 / 144 40% 1 11.09.2026 -
Malcom Al Jazira Aktiv 137 / 147 40% 6 06.09.2026 -
Francisco Conceição Juventus Aktiv 168 / 150 40% 1 06.09.2026 -
Rivaldo Mouscron Aktiv 118 / 122 40% 1 02.09.2026 -
Geovany Quenda Chelsea Aktiv 142 / 148 40% 1 02.09.2026 -
Jan Virgili Club Brugge Aktiv 138 / 129 40% 1 02.09.2026 -
Brais Méndez Columbus Crew Aktiv 140 / 149 40% 2 01.09.2026 -
Rúben Neves Al-Hilal Aktiv 162 / 148 40% 3 26.08.2026 -
Pedro Zenit Aktiv 137 / 127 40% 1 24.08.2026 -
Veljko Milosavljević Newcastle United Aktiv 117 / 140 40% 1 24.08.2026 -
Roger Fernandes Al-Ittihad Aktiv 130 / 127 40% 1 17.08.2026 -
Axel Doku KV Oostende Aktiv 132 / 126 40% 1 16.08.2026 -
Alex Amaral Porto Aktiv 154 / 165 40% 1 15.08.2026 -
Yarek Gąsiorowski PSV Aktiv 142 / 141 40% 1 12.08.2026 -
Samú Al-Nassr Aktiv 134 / 154 40% 1 12.08.2026 -
Paul Wanner PSV Aktiv 131 / 141 40% 1 12.08.2026 -
Mathias De Amorim Famalicao Aktiv 133 / 141 40% 1 12.08.2026 -
Givairo Read Feyenoord Aktiv 139 / 154 40% 1 11.08.2026 -
Luis Suárez Sporting CP Aktiv 153 / 155 40% 1 10.08.2026 -
Ângelo Al-Nassr Aktiv 134 / 136 40% 1 10.08.2026 -
João Simões Sporting CP Aktiv 126 / 128 40% 1 08.08.2026 -
Ritsu Doan Gamba Osaka Aktiv 138 / 136 40% 1 08.08.2026 -
James Maddison Tottenham Aktiv 162 / 152 40% 1 05.08.2026 -
Leny Yoro Manchester United Aktiv 143 / 157 40% 1 04.08.2026 -